createdAt,value
2019-02-04T00:01:59.687Z,15.72
2019-02-04T00:04:30.640Z,11.68
2019-02-04T00:07:00.566Z,11.85
2019-02-04T00:09:30.146Z,10.60
2019-02-04T00:11:59.824Z,11.93
2019-02-04T00:14:29.465Z,13.80
2019-02-04T00:16:59.134Z,12.82
2019-02-04T00:19:28.862Z,13.25
2019-02-04T00:21:58.496Z,13.08
2019-02-04T00:24:28.487Z,12.35
2019-02-04T00:26:58.124Z,12.82
2019-02-04T00:29:27.806Z,12.47
2019-02-04T00:31:57.514Z,12.18
2019-02-04T00:34:27.136Z,11.85
2019-02-04T00:36:56.771Z,13.55
2019-02-04T00:39:26.411Z,12.73
2019-02-04T00:41:56.147Z,14.98
2019-02-04T00:44:25.848Z,10.28
2019-02-04T00:46:55.493Z,12.68
2019-02-04T00:49:25.065Z,12.37
2019-02-04T00:51:54.736Z,12.47
2019-02-04T00:54:24.600Z,13.65
2019-02-04T00:56:54.262Z,12.13
2019-02-04T00:59:23.921Z,25.30
2019-02-04T01:01:53.661Z,13.70
2019-02-04T01:04:23.555Z,14.03
2019-02-04T01:06:53.492Z,11.22
2019-02-04T01:09:23.256Z,9.68
2019-02-04T01:11:53.101Z,11.63
2019-02-04T01:14:22.871Z,9.95
2019-02-04T01:17:03.238Z,13.03
2019-02-04T01:19:25.102Z,13.83
2019-02-04T01:21:54.797Z,10.55
2019-02-04T01:24:24.521Z,11.45
2019-02-04T01:26:54.216Z,11.60
2019-02-04T01:29:23.851Z,14.85
2019-02-04T01:31:53.538Z,9.65
2019-02-04T01:34:23.493Z,10.58
2019-02-04T01:36:53.175Z,10.82
2019-02-04T01:39:23.010Z,9.65
2019-02-04T01:41:52.686Z,10.93
2019-02-04T01:44:22.433Z,11.00
2019-02-04T01:46:52.116Z,11.10
2019-02-04T01:49:21.840Z,10.00
2019-02-04T01:51:51.535Z,11.35
2019-02-04T01:54:21.193Z,10.53
2019-02-04T01:56:50.856Z,8.93
2019-02-04T01:59:20.561Z,9.65
2019-02-04T02:01:50.622Z,9.90
2019-02-04T02:04:20.321Z,9.65
2019-02-04T02:06:50.104Z,8.95
2019-02-04T02:09:24.755Z,10.28
2019-02-04T02:11:54.466Z,11.18
2019-02-04T02:14:24.393Z,10.00
2019-02-04T02:16:54.080Z,8.88
2019-02-04T02:19:23.706Z,11.85
2019-02-04T02:21:53.398Z,8.98
2019-02-04T02:24:23.058Z,14.33
2019-02-04T02:26:52.811Z,11.85
2019-02-04T02:29:22.439Z,9.73
2019-02-04T02:31:52.133Z,9.35
2019-02-04T02:34:21.846Z,9.95
2019-02-04T02:36:51.499Z,9.08
2019-02-04T02:39:21.275Z,9.25
2019-02-04T02:41:51.309Z,11.63
2019-02-04T02:44:21.113Z,10.75
2019-02-04T02:46:50.725Z,21.65
2019-02-04T02:49:20.424Z,11.33
2019-02-04T02:51:50.104Z,11.30
2019-02-04T02:54:19.838Z,9.38
2019-02-04T02:56:49.877Z,9.33
2019-02-04T02:59:19.579Z,10.98
2019-02-04T03:01:49.207Z,9.65
2019-02-04T03:04:19.033Z,8.90
2019-02-04T03:06:48.634Z,7.12
2019-02-04T03:09:18.307Z,8.95
2019-02-04T03:11:47.952Z,7.72
2019-02-04T03:14:17.645Z,9.63
2019-02-04T03:16:47.351Z,8.85
2019-02-04T03:19:16.983Z,11.25
2019-02-04T03:21:46.754Z,9.25
2019-02-04T03:24:16.703Z,9.20
2019-02-04T03:26:46.386Z,8.75
2019-02-04T03:29:15.971Z,10.35
2019-02-04T03:31:46.619Z,8.85
2019-02-04T03:34:16.343Z,10.93
2019-02-04T03:36:45.989Z,9.35
2019-02-04T03:39:15.664Z,6.92
2019-02-04T03:41:45.434Z,8.23
2019-02-04T03:44:15.201Z,9.08
2019-02-04T03:46:44.820Z,9.60
2019-02-04T03:49:14.582Z,10.60
2019-02-04T03:51:44.543Z,8.93
2019-02-04T03:54:14.331Z,11.18
2019-02-04T03:56:44.065Z,7.37
2019-02-04T03:59:13.859Z,10.55
2019-02-04T04:01:43.579Z,7.10
2019-02-04T04:04:13.090Z,9.13
2019-02-04T04:06:42.829Z,8.75
2019-02-04T04:09:12.513Z,8.33
2019-02-04T04:11:42.202Z,8.95
2019-02-04T04:14:11.883Z,6.72
2019-02-04T04:16:41.626Z,7.80
2019-02-04T04:19:11.512Z,8.20
2019-02-04T04:21:41.262Z,7.72
2019-02-04T04:24:10.943Z,7.90
2019-02-04T04:26:40.787Z,7.42
2019-02-04T04:29:10.425Z,8.25
2019-02-04T04:31:40.212Z,7.28
2019-02-04T04:34:10.049Z,13.60
2019-02-04T04:36:39.728Z,8.48
2019-02-04T04:39:09.539Z,7.87
2019-02-04T04:41:39.351Z,7.35
2019-02-04T04:44:09.063Z,7.85
2019-02-04T04:46:39.189Z,7.33
2019-02-04T04:49:08.814Z,7.20
2019-02-04T04:51:38.508Z,8.73
2019-02-04T04:54:08.220Z,8.85
2019-02-04T04:56:37.950Z,10.95
2019-02-04T04:59:07.636Z,7.35
2019-02-04T05:01:37.593Z,12.70
2019-02-04T05:04:07.283Z,9.00
2019-02-04T05:06:36.895Z,8.73
2019-02-04T05:09:07.837Z,9.78
2019-02-04T05:11:37.524Z,10.43
2019-02-04T05:14:07.338Z,13.30
2019-02-04T05:16:37.266Z,9.03
2019-02-04T05:19:07.062Z,7.95
2019-02-04T05:21:36.668Z,8.60
2019-02-04T05:24:07.617Z,11.05
2019-02-04T05:26:37.530Z,7.60
2019-02-04T05:29:07.172Z,11.80
2019-02-04T05:31:37.147Z,7.90
2019-02-04T05:34:06.775Z,8.98
2019-02-04T05:36:36.843Z,6.65
2019-02-04T05:39:08.311Z,10.05
2019-02-04T05:41:38.679Z,9.25
2019-02-04T05:44:08.373Z,7.50
2019-02-04T05:46:38.086Z,8.50
2019-02-04T05:49:07.946Z,9.63
2019-02-04T05:51:37.693Z,8.93
2019-02-04T05:54:08.699Z,8.05
2019-02-04T05:56:38.560Z,9.15
2019-02-04T05:59:09.550Z,12.20
2019-02-04T06:01:39.422Z,13.38
2019-02-04T06:04:10.002Z,14.55
2019-02-04T06:06:40.980Z,13.40
2019-02-04T06:09:11.434Z,20.62
2019-02-04T06:11:41.265Z,27.55
2019-02-04T06:14:11.664Z,20.48
2019-02-04T06:16:41.603Z,18.77
2019-02-04T06:19:11.249Z,24.82
2019-02-04T06:21:40.967Z,26.37
2019-02-04T06:24:10.697Z,21.07
2019-02-04T06:26:40.681Z,15.98
2019-02-04T06:29:10.403Z,21.12
2019-02-04T06:31:40.267Z,18.73
2019-02-04T06:34:10.094Z,23.95
2019-02-04T06:36:40.623Z,17.45
2019-02-04T06:39:11.879Z,18.82
2019-02-04T06:41:41.665Z,16.85
2019-02-04T06:44:11.125Z,16.25
2019-02-04T06:46:40.889Z,17.17
2019-02-04T06:49:12.536Z,18.90
2019-02-04T06:51:42.241Z,15.08
2019-02-04T06:54:12.007Z,17.55
2019-02-04T06:56:41.806Z,14.13
2019-02-04T06:59:11.575Z,21.23
2019-02-04T07:01:41.600Z,15.88
2019-02-04T07:04:11.482Z,16.55
2019-02-04T07:06:41.249Z,14.53
2019-02-04T07:09:12.256Z,17.60
2019-02-04T07:11:41.788Z,12.93
2019-02-04T07:14:11.490Z,16.20
2019-02-04T07:16:41.388Z,12.63
2019-02-04T07:19:11.274Z,15.78
2019-02-04T07:21:41.064Z,13.55
2019-02-04T07:24:10.839Z,11.73
2019-02-04T07:26:40.465Z,16.32
2019-02-04T07:29:10.280Z,12.73
2019-02-04T07:31:40.223Z,11.88
2019-02-04T07:34:09.884Z,13.40
2019-02-04T07:36:39.898Z,14.65
2019-02-04T07:39:09.916Z,15.68
2019-02-04T07:41:39.687Z,11.68
2019-02-04T07:44:09.352Z,13.38
2019-02-04T07:46:39.514Z,14.00
2019-02-04T07:49:09.279Z,11.83
2019-02-04T07:51:39.081Z,13.95
2019-02-04T07:54:08.981Z,14.53
2019-02-04T07:56:38.690Z,12.20
2019-02-04T07:59:08.534Z,12.03
2019-02-04T08:01:38.523Z,11.22
2019-02-04T08:04:08.369Z,13.55
2019-02-04T08:06:37.986Z,12.25
2019-02-04T08:09:09.569Z,10.90
2019-02-04T08:11:39.269Z,11.68
2019-02-04T08:14:09.254Z,9.60
2019-02-04T08:16:38.978Z,10.98
2019-02-04T08:19:08.799Z,11.05
2019-02-04T08:21:38.506Z,13.30
2019-02-04T08:24:08.304Z,10.45
2019-02-04T08:26:38.054Z,12.95
2019-02-04T08:29:08.136Z,12.63
2019-02-04T08:31:37.931Z,11.40
2019-02-04T08:34:07.672Z,11.28
2019-02-04T08:36:45.978Z,10.65
2019-02-04T08:39:09.923Z,11.85
2019-02-04T08:41:39.648Z,13.00
2019-02-04T08:44:09.330Z,11.85
2019-02-04T08:46:39.076Z,12.23
2019-02-04T08:49:08.735Z,10.45
2019-02-04T08:51:38.392Z,12.45
2019-02-04T08:54:08.105Z,10.18
2019-02-04T08:56:37.730Z,15.30
2019-02-04T08:59:07.444Z,9.35
2019-02-04T09:01:37.376Z,10.85
2019-02-04T09:04:07.387Z,11.80
2019-02-04T09:06:37.170Z,12.82
2019-02-04T09:09:09.631Z,10.88
2019-02-04T09:11:39.267Z,12.65
2019-02-04T09:14:09.199Z,12.80
2019-02-04T09:16:38.797Z,11.63
2019-02-04T09:19:08.498Z,13.60
2019-02-04T09:21:38.132Z,13.72
2019-02-04T09:24:07.921Z,17.48
2019-02-04T09:26:37.759Z,20.97
2019-02-04T09:29:07.650Z,33.33
2019-02-04T09:31:37.291Z,37.28
2019-02-04T09:34:06.932Z,42.88
2019-02-04T09:36:36.671Z,45.92
2019-02-04T09:39:09.411Z,49.58
2019-02-04T09:41:39.416Z,53.45
2019-02-04T09:44:09.458Z,53.15
2019-02-04T09:46:39.314Z,55.80
2019-02-04T09:49:09.133Z,61.40
2019-02-04T09:51:39.036Z,60.45
2019-02-04T09:54:08.865Z,65.05
2019-02-04T09:56:38.626Z,65.32
2019-02-04T09:59:08.466Z,64.82
2019-02-04T10:01:38.316Z,67.37
2019-02-04T10:04:08.007Z,64.70
2019-02-04T10:06:37.801Z,64.82
2019-02-04T10:09:09.528Z,65.28
2019-02-04T10:11:39.315Z,63.30
2019-02-04T10:14:09.100Z,59.18
2019-02-04T10:16:38.733Z,63.10
2019-02-04T10:19:08.451Z,62.65
2019-02-04T10:21:38.143Z,62.25
2019-02-04T10:24:08.150Z,57.40
2019-02-04T10:26:38.854Z,57.23
2019-02-04T10:29:08.516Z,54.70
2019-02-04T10:31:38.230Z,57.30
2019-02-04T10:34:07.877Z,53.52
2019-02-04T10:36:37.539Z,58.35
2019-02-04T10:39:09.619Z,55.73
2019-02-04T10:41:39.320Z,53.15
2019-02-04T10:44:08.954Z,56.98
2019-02-04T10:46:38.787Z,55.43
2019-02-04T10:49:08.509Z,54.08
2019-02-04T10:51:38.553Z,53.90
2019-02-04T10:54:08.348Z,55.63
2019-02-04T10:56:38.199Z,60.00
2019-02-04T10:59:07.965Z,54.27
2019-02-04T11:01:37.814Z,61.68
2019-02-04T11:04:07.595Z,54.83
2019-02-04T11:06:37.378Z,58.65
2019-02-04T11:09:09.195Z,60.05
2019-02-04T11:11:39.082Z,53.48
2019-02-04T11:14:08.829Z,63.83
2019-02-04T11:16:38.567Z,67.03
2019-02-04T11:19:08.684Z,59.03
2019-02-04T11:21:38.464Z,52.13
2019-02-04T11:24:08.382Z,59.20
2019-02-04T11:26:38.166Z,50.65
2019-02-04T11:29:07.847Z,58.05
2019-02-04T11:31:37.597Z,55.70
2019-02-04T11:34:07.453Z,55.23
2019-02-04T11:36:37.405Z,51.55
2019-02-04T11:39:09.299Z,54.42
2019-02-04T11:41:39.067Z,52.30
2019-02-04T11:44:08.756Z,49.93
2019-02-04T11:46:38.890Z,56.75
2019-02-04T11:49:08.587Z,58.25
2019-02-04T11:51:38.210Z,54.23
2019-02-04T11:54:07.712Z,56.02
2019-02-04T11:56:37.408Z,50.48
2019-02-04T11:59:07.196Z,50.23
2019-02-04T12:01:36.835Z,50.80
2019-02-04T12:04:06.815Z,57.73
2019-02-04T12:06:36.605Z,49.35
2019-02-04T12:09:08.963Z,52.05
2019-02-04T12:11:38.792Z,54.50
2019-02-04T12:14:08.831Z,48.75
2019-02-04T12:16:38.474Z,51.70
2019-02-04T12:19:08.081Z,53.38
2019-02-04T12:21:37.800Z,57.17
2019-02-04T12:24:07.404Z,50.43
2019-02-04T12:26:37.094Z,51.05
2019-02-04T12:29:07.080Z,46.88
2019-02-04T12:31:36.807Z,43.55
2019-02-04T12:34:06.464Z,54.67
2019-02-04T12:36:36.309Z,46.90
2019-02-04T12:39:14.896Z,62.20
2019-02-04T12:41:44.714Z,47.95
2019-02-04T12:44:14.377Z,49.88
2019-02-04T12:46:44.126Z,45.88
2019-02-04T12:49:13.809Z,47.58
2019-02-04T12:51:43.441Z,48.02
2019-02-04T12:54:13.037Z,53.30
2019-02-04T12:56:42.788Z,46.80
2019-02-04T12:59:12.347Z,46.92
2019-02-04T13:01:41.983Z,46.13
2019-02-04T13:04:11.671Z,45.38
2019-02-04T13:06:41.529Z,45.88
2019-02-04T13:09:11.456Z,47.10
2019-02-04T13:11:41.206Z,45.83
2019-02-04T13:14:10.910Z,40.83
2019-02-04T13:16:40.563Z,43.38
2019-02-04T13:19:10.246Z,45.83
2019-02-04T13:21:45.478Z,44.98
2019-02-04T13:24:11.311Z,44.35
2019-02-04T13:26:41.031Z,48.68
2019-02-04T13:29:10.736Z,46.00
2019-02-04T13:31:40.446Z,43.10
2019-02-04T13:34:10.259Z,44.88
2019-02-04T13:36:40.084Z,48.68
2019-02-04T13:39:10.511Z,45.78
2019-02-04T13:41:40.187Z,47.93
2019-02-04T13:44:10.006Z,47.35
2019-02-04T13:46:39.715Z,46.80
2019-02-04T13:49:09.478Z,45.33
2019-02-04T13:51:39.588Z,46.70
2019-02-04T13:54:09.385Z,50.40
2019-02-04T13:56:39.094Z,45.70
2019-02-04T13:59:08.846Z,44.73
2019-02-04T14:01:38.614Z,48.63
2019-02-04T14:04:08.402Z,43.60
2019-02-04T14:06:38.153Z,42.50
2019-02-04T14:09:15.980Z,44.95
2019-02-04T14:11:45.748Z,45.85
2019-02-04T14:14:15.679Z,42.00
2019-02-04T14:16:45.592Z,44.03
2019-02-04T14:19:15.509Z,41.58
2019-02-04T14:21:45.339Z,45.90
2019-02-04T14:24:14.933Z,46.13
2019-02-04T14:26:44.641Z,45.78
2019-02-04T14:29:14.351Z,47.70
2019-02-04T14:31:44.363Z,40.67
2019-02-04T14:34:13.993Z,46.40
2019-02-04T14:36:43.862Z,45.78
2019-02-04T14:39:15.689Z,43.38
2019-02-04T14:41:45.431Z,45.40
2019-02-04T14:45:05.301Z,44.93
2019-02-04T14:47:46.615Z,42.58
2019-02-04T14:50:56.206Z,42.55
2019-02-04T14:54:00.340Z,43.52
2019-02-04T14:56:59.475Z,47.67
2019-02-04T14:59:36.677Z,41.63
2019-02-04T15:02:37.904Z,40.92
2019-02-04T15:05:33.440Z,42.30
2019-02-04T15:08:39.386Z,39.90
2019-02-04T15:11:52.133Z,39.13
2019-02-04T15:14:55.302Z,39.45
2019-02-04T15:18:16.037Z,45.73
2019-02-04T15:21:09.378Z,43.20
2019-02-04T15:24:25.956Z,39.30
2019-02-04T15:28:01.029Z,39.33
2019-02-04T15:31:12.354Z,41.68
2019-02-04T15:33:53.721Z,40.17
2019-02-04T15:36:42.449Z,39.60
2019-02-04T15:39:51.295Z,41.28
2019-02-04T15:43:19.985Z,38.38
2019-02-04T15:46:10.681Z,47.67
2019-02-04T15:49:05.893Z,42.73
2019-02-04T15:51:40.410Z,40.92
2019-02-04T15:54:10.637Z,38.25
2019-02-04T15:56:40.272Z,40.52
2019-02-04T15:59:09.963Z,41.65
2019-02-04T16:01:39.694Z,44.53
2019-02-04T16:04:29.201Z,39.10
2019-02-04T16:06:58.883Z,39.95
2019-02-04T16:09:28.871Z,39.00
2019-02-04T16:11:58.595Z,40.73
2019-02-04T16:14:28.289Z,37.88
2019-02-04T16:16:58.024Z,39.92
2019-02-04T16:19:27.708Z,39.23
2019-02-04T16:21:57.434Z,36.73
2019-02-04T16:24:27.125Z,37.58
2019-02-04T16:26:56.855Z,38.85
2019-02-04T16:29:26.969Z,45.83
2019-02-04T16:31:56.681Z,38.78
2019-02-04T16:34:26.621Z,38.75
2019-02-04T16:36:56.367Z,39.55
2019-02-04T16:39:26.112Z,38.80
2019-02-04T16:41:55.903Z,42.95
2019-02-04T16:44:25.774Z,40.52
2019-02-04T16:46:55.457Z,38.92
2019-02-04T16:49:25.173Z,38.83
2019-02-04T16:51:54.812Z,31.15
2019-02-04T16:54:24.502Z,36.93
2019-02-04T16:56:54.322Z,34.75
2019-02-04T16:59:24.217Z,37.10
2019-02-04T17:01:53.746Z,36.65
2019-02-04T17:04:23.460Z,36.23
2019-02-04T17:06:53.186Z,37.28
2019-02-04T17:09:22.960Z,39.63
2019-02-04T17:11:52.692Z,33.48
2019-02-04T17:14:22.193Z,36.70
2019-02-04T17:16:51.808Z,36.95
2019-02-04T17:19:21.793Z,46.80
2019-02-04T17:21:51.487Z,36.75
2019-02-04T17:24:21.219Z,33.60
2019-02-04T17:26:50.841Z,37.00
2019-02-04T17:29:20.491Z,37.45
2019-02-04T17:31:50.180Z,34.27
2019-02-04T17:34:19.963Z,42.75
2019-02-04T17:36:49.585Z,37.08
2019-02-04T17:39:19.209Z,33.15
2019-02-04T17:41:49.207Z,30.75
2019-02-04T17:44:18.822Z,37.28
2019-02-04T17:46:48.618Z,33.78
2019-02-04T17:49:18.279Z,31.37
2019-02-04T17:51:48.070Z,35.35
2019-02-04T17:54:17.860Z,30.17
2019-02-04T17:56:47.772Z,32.08
2019-02-04T17:59:17.534Z,33.28
2019-02-04T18:01:47.140Z,34.85
2019-02-04T18:04:16.720Z,32.73
2019-02-04T18:06:46.520Z,36.85
2019-02-04T18:09:16.023Z,33.20
2019-02-04T18:11:45.732Z,34.98
2019-02-04T18:14:15.351Z,29.87
2019-02-04T18:16:45.049Z,31.02
2019-02-04T18:19:14.833Z,35.10
2019-02-04T18:21:44.487Z,32.53
2019-02-04T18:24:14.685Z,33.60
2019-02-04T18:26:44.396Z,29.65
2019-02-04T18:29:14.104Z,30.30
2019-02-04T18:31:43.765Z,33.73
2019-02-04T18:34:13.526Z,33.58
2019-02-04T18:36:43.219Z,33.02
2019-02-04T18:39:13.165Z,30.20
2019-02-04T18:41:44.227Z,29.45
2019-02-04T18:44:13.852Z,31.65
2019-02-04T18:46:43.879Z,29.87
2019-02-04T18:49:13.668Z,27.87
2019-02-04T18:51:43.375Z,28.35
2019-02-04T18:54:13.155Z,27.62
2019-02-04T18:56:42.886Z,28.05
2019-02-04T18:59:12.592Z,29.10
2019-02-04T19:01:42.311Z,26.60
2019-02-04T19:04:15.545Z,27.55
2019-02-04T19:06:47.735Z,46.65
2019-02-04T19:09:15.868Z,27.70
2019-02-04T19:11:45.772Z,28.20
2019-02-04T19:14:15.539Z,24.37
2019-02-04T19:16:45.522Z,23.30
2019-02-04T19:19:15.461Z,26.87
2019-02-04T19:21:45.313Z,23.87
2019-02-04T19:24:15.180Z,24.67
2019-02-04T19:26:44.946Z,26.60
2019-02-04T19:29:14.644Z,25.37
2019-02-04T19:31:44.496Z,23.70
2019-02-04T19:34:14.183Z,24.75
2019-02-04T19:36:44.021Z,23.10
2019-02-04T19:39:13.705Z,25.77
2019-02-04T19:41:43.987Z,25.35
2019-02-04T19:44:14.113Z,24.57
2019-02-04T19:46:44.089Z,24.98
2019-02-04T19:49:13.697Z,22.48
2019-02-04T19:51:43.382Z,25.00
2019-02-04T19:54:21.297Z,22.15
2019-02-04T19:56:44.581Z,21.30
2019-02-04T19:59:14.184Z,22.42
2019-02-04T20:01:43.886Z,23.45
2019-02-04T20:04:13.826Z,22.58
2019-02-04T20:06:43.481Z,20.75
2019-02-04T20:09:13.226Z,23.85
2019-02-04T20:11:42.932Z,22.67
2019-02-04T20:14:12.621Z,25.23
2019-02-04T20:16:42.257Z,23.47
2019-02-04T20:19:12.080Z,24.50
2019-02-04T20:21:41.743Z,23.45
2019-02-04T20:24:11.466Z,26.23
2019-02-04T20:26:41.174Z,50.48
2019-02-04T20:29:10.703Z,24.40
2019-02-04T20:31:40.512Z,24.37
2019-02-04T20:34:10.196Z,24.37
2019-02-04T20:36:39.907Z,23.02
2019-02-04T20:39:10.614Z,21.30
2019-02-04T20:41:40.502Z,26.97
2019-02-04T20:44:10.164Z,29.72
2019-02-04T20:46:39.963Z,22.50
2019-02-04T20:49:09.607Z,25.43
2019-02-04T20:51:39.245Z,24.55
2019-02-04T20:54:19.240Z,27.02
2019-02-04T20:56:40.298Z,24.20
2019-02-04T20:59:10.287Z,25.25
2019-02-04T21:01:40.048Z,28.77
2019-02-04T21:04:09.700Z,24.43
2019-02-04T21:06:39.347Z,22.90
2019-02-04T21:09:10.190Z,28.42
2019-02-04T21:11:39.975Z,27.07
2019-02-04T21:14:09.600Z,22.85
2019-02-04T21:16:39.226Z,20.80
2019-02-04T21:19:08.916Z,21.23
2019-02-04T21:21:38.666Z,25.35
2019-02-04T21:24:08.336Z,22.90
2019-02-04T21:26:38.027Z,21.33
2019-02-04T21:29:07.777Z,23.15
2019-02-04T21:31:37.446Z,20.43
2019-02-04T21:34:07.174Z,20.60
2019-02-04T21:36:36.786Z,23.90
2019-02-04T21:39:07.887Z,20.17
2019-02-04T21:41:37.861Z,21.75
2019-02-04T21:44:07.773Z,19.45
2019-02-04T21:46:37.386Z,28.35
2019-02-04T21:49:09.732Z,20.77
2019-02-04T21:51:39.445Z,19.15
2019-02-04T21:54:09.085Z,18.95
2019-02-04T21:56:38.767Z,20.40
2019-02-04T21:59:08.382Z,20.75
2019-02-04T22:01:38.078Z,17.15
2019-02-04T22:04:07.704Z,17.48
2019-02-04T22:06:37.401Z,18.82
2019-02-04T22:09:09.432Z,21.17
2019-02-04T22:11:39.178Z,20.95
2019-02-04T22:14:09.307Z,21.77
2019-02-04T22:16:38.935Z,18.20
2019-02-04T22:19:08.722Z,17.62
2019-02-04T22:21:38.427Z,18.32
2019-02-04T22:24:08.340Z,17.20
2019-02-04T22:26:38.006Z,18.40
2019-02-04T22:29:08.095Z,17.42
2019-02-04T22:31:37.708Z,18.75
2019-02-04T22:34:07.509Z,17.52
2019-02-04T22:36:37.125Z,18.17
2019-02-04T22:39:09.013Z,17.10
2019-02-04T22:41:38.928Z,20.52
2019-02-04T22:44:08.660Z,21.27
2019-02-04T22:46:38.268Z,18.98
2019-02-04T22:49:08.071Z,17.77
2019-02-04T22:51:37.698Z,18.37
2019-02-04T22:54:08.867Z,19.05
2019-02-04T22:56:38.610Z,15.72
2019-02-04T22:59:08.349Z,17.92
2019-02-04T23:01:45.020Z,17.17
2019-02-04T23:04:14.948Z,18.62
2019-02-04T23:06:44.950Z,16.42
2019-02-04T23:09:14.667Z,17.48
2019-02-04T23:11:44.471Z,18.75
2019-02-04T23:14:14.255Z,18.05
2019-02-04T23:16:43.992Z,15.48
2019-02-04T23:19:13.578Z,17.17
2019-02-04T23:21:43.251Z,17.05
2019-02-04T23:24:12.909Z,16.32
2019-02-04T23:26:42.576Z,16.23
2019-02-04T23:29:12.298Z,15.23
2019-02-04T23:31:42.004Z,16.70
2019-02-04T23:34:11.955Z,18.30
2019-02-04T23:36:41.732Z,16.17
2019-02-04T23:39:11.499Z,17.77
2019-02-04T23:41:41.144Z,15.30
2019-02-04T23:44:10.868Z,16.20
2019-02-04T23:46:40.496Z,16.40
2019-02-04T23:49:10.493Z,15.85
2019-02-04T23:51:40.139Z,15.15
2019-02-04T23:54:09.806Z,15.83
2019-02-04T23:56:39.523Z,14.83
2019-02-04T23:59:09.230Z,15.40
